Aviation Digital Data Service (ADDS)

Output produced by METARs form (0629 UTC 05 March 2015)
found at http://www.aviationweather.gov/adds/metars/
 
KLNS 050553Z AUTO 29008KT 5SM -RA BR OVC055 02/01 A2994 RMK AO2 SLP143 P0004 60024 T00170006 10033 20017 55003
KLNS 050529Z 0506/0606 30005KT 6SM -RA BR OVC070 
     FM050700 31006KT 1SM -RAPLSN BR SCT005 OVC015 
     FM050800 32010KT 1SM -SN OVC005 
     FM051400 33010KT 5SM BR OVC007 
     FM052000 36009KT P6SM OVC050